sensor_id;sensor_type;location;lat;lon;timestamp;temperature;humidity
11894;DHT22;6006;49.696;8.662;2022-12-10T00:01:12;1.20;99.90
11894;DHT22;6006;49.696;8.662;2022-12-10T00:03:39;1.20;99.90
11894;DHT22;6006;49.696;8.662;2022-12-10T00:06:10;1.20;99.90
11894;DHT22;6006;49.696;8.662;2022-12-10T00:08:38;1.20;99.90
11894;DHT22;6006;49.696;8.662;2022-12-10T00:11:07;1.20;99.90
11894;DHT22;6006;49.696;8.662;2022-12-10T00:13:35;1.20;99.90
11894;DHT22;6006;49.696;8.662;2022-12-10T00:16:03;1.20;99.90
11894;DHT22;6006;49.696;8.662;2022-12-10T00:18:30;1.20;99.90
11894;DHT22;6006;49.696;8.662;2022-12-10T00:20:57;1.20;99.90
11894;DHT22;6006;49.696;8.662;2022-12-10T00:23:25;1.10;99.90
11894;DHT22;6006;49.696;8.662;2022-12-10T00:25:52;1.20;99.90
11894;DHT22;6006;49.696;8.662;2022-12-10T00:28:19;1.20;99.90
11894;DHT22;6006;49.696;8.662;2022-12-10T00:30:46;1.20;99.90
11894;DHT22;6006;49.696;8.662;2022-12-10T00:33:13;1.10;99.90
11894;DHT22;6006;49.696;8.662;2022-12-10T00:35:40;1.20;99.90
11894;DHT22;6006;49.696;8.662;2022-12-10T00:38:07;1.20;99.90
11894;DHT22;6006;49.696;8.662;2022-12-10T00:40:36;1.20;99.90
11894;DHT22;6006;49.696;8.662;2022-12-10T00:43:02;1.20;99.90
11894;DHT22;6006;49.696;8.662;2022-12-10T00:45:30;1.20;99.90
11894;DHT22;6006;49.696;8.662;2022-12-10T00:47:57;1.20;99.90
11894;DHT22;6006;49.696;8.662;2022-12-10T00:50:24;1.30;99.90
11894;DHT22;6006;49.696;8.662;2022-12-10T00:52:51;1.20;99.90
11894;DHT22;6006;49.696;8.662;2022-12-10T00:55:18;1.20;99.90
11894;DHT22;6006;49.696;8.662;2022-12-10T00:57:46;1.20;99.90
11894;DHT22;6006;49.696;8.662;2022-12-10T01:00:14;1.30;99.90
11894;DHT22;6006;49.696;8.662;2022-12-10T01:02:41;1.20;99.90
11894;DHT22;6006;49.696;8.662;2022-12-10T01:05:08;1.20;99.90
11894;DHT22;6006;49.696;8.662;2022-12-10T01:07:35;1.10;99.90
11894;DHT22;6006;49.696;8.662;2022-12-10T01:10:03;1.10;99.90
11894;DHT22;6006;49.696;8.662;2022-12-10T01:12:31;1.10;99.90
11894;DHT22;6006;49.696;8.662;2022-12-10T01:14:59;1.10;99.90
11894;DHT22;6006;49.696;8.662;2022-12-10T01:17:26;1.10;99.90
11894;DHT22;6006;49.696;8.662;2022-12-10T01:19:53;1.10;99.90
11894;DHT22;6006;49.696;8.662;2022-12-10T01:22:20;1.10;99.90
11894;DHT22;6006;49.696;8.662;2022-12-10T01:24:47;1.10;99.90
11894;DHT22;6006;49.696;8.662;2022-12-10T01:27:14;1.00;99.90
11894;DHT22;6006;49.696;8.662;2022-12-10T01:29:41;1.00;99.90
11894;DHT22;6006;49.696;8.662;2022-12-10T01:32:09;1.00;99.90
11894;DHT22;6006;49.696;8.662;2022-12-10T01:34:36;1.00;99.90
11894;DHT22;6006;49.696;8.662;2022-12-10T01:37:03;1.00;99.90
11894;DHT22;6006;49.696;8.662;2022-12-10T01:39:30;1.00;99.90
11894;DHT22;6006;49.696;8.662;2022-12-10T01:41:58;0.90;99.90
11894;DHT22;6006;49.696;8.662;2022-12-10T01:44:58;1.00;99.90
11894;DHT22;6006;49.696;8.662;2022-12-10T01:47:27;0.90;99.90
11894;DHT22;6006;49.696;8.662;2022-12-10T01:49:54;0.90;99.90
11894;DHT22;6006;49.696;8.662;2022-12-10T01:52:21;0.90;99.90
11894;DHT22;6006;49.696;8.662;2022-12-10T01:54:48;0.90;99.90
11894;DHT22;6006;49.696;8.662;2022-12-10T01:57:17;0.90;99.90
11894;DHT22;6006;49.696;8.662;2022-12-10T01:59:48;0.90;99.90
11894;DHT22;6006;49.696;8.662;2022-12-10T02:02:22;0.90;99.90
11894;DHT22;6006;49.696;8.662;2022-12-10T02:05:01;0.90;99.90
11894;DHT22;6006;49.696;8.662;2022-12-10T02:07:37;0.90;99.90
11894;DHT22;6006;49.696;8.662;2022-12-10T02:10:11;0.90;99.90
11894;DHT22;6006;49.696;8.662;2022-12-10T02:12:46;0.90;99.90
11894;DHT22;6006;49.696;8.662;2022-12-10T02:15:16;0.90;99.90
11894;DHT22;6006;49.696;8.662;2022-12-10T02:17:46;0.90;99.90
11894;DHT22;6006;49.696;8.662;2022-12-10T02:20:19;0.90;99.90
11894;DHT22;6006;49.696;8.662;2022-12-10T02:22:50;0.90;99.90
11894;DHT22;6006;49.696;8.662;2022-12-10T02:25:24;0.90;99.90
11894;DHT22;6006;49.696;8.662;2022-12-10T02:27:56;0.90;99.90
11894;DHT22;6006;49.696;8.662;2022-12-10T02:30:25;0.90;99.90
11894;DHT22;6006;49.696;8.662;2022-12-10T02:32:53;0.90;99.90
11894;DHT22;6006;49.696;8.662;2022-12-10T02:35:24;0.90;99.90
11894;DHT22;6006;49.696;8.662;2022-12-10T02:37:56;0.80;99.90
11894;DHT22;6006;49.696;8.662;2022-12-10T02:40:27;0.80;99.90
11894;DHT22;6006;49.696;8.662;2022-12-10T02:42:55;0.80;99.90
11894;DHT22;6006;49.696;8.662;2022-12-10T02:45:25;0.80;99.90
11894;DHT22;6006;49.696;8.662;2022-12-10T02:47:57;0.80;99.90
11894;DHT22;6006;49.696;8.662;2022-12-10T02:50:24;0.80;99.90
11894;DHT22;6006;49.696;8.662;2022-12-10T02:52:51;0.80;99.90
11894;DHT22;6006;49.696;8.662;2022-12-10T02:55:18;0.80;99.90
11894;DHT22;6006;49.696;8.662;2022-12-10T02:58:02;0.80;99.90
11894;DHT22;6006;49.696;8.662;2022-12-10T03:00:37;0.80;99.90
11894;DHT22;6006;49.696;8.662;2022-12-10T03:03:25;0.80;99.90
11894;DHT22;6006;49.696;8.662;2022-12-10T03:05:59;0.80;99.90
11894;DHT22;6006;49.696;8.662;2022-12-10T03:08:34;0.80;99.90
11894;DHT22;6006;49.696;8.662;2022-12-10T03:11:08;0.80;99.90
11894;DHT22;6006;49.696;8.662;2022-12-10T03:13:40;0.80;99.90
11894;DHT22;6006;49.696;8.662;2022-12-10T03:16:13;0.70;99.90
11894;DHT22;6006;49.696;8.662;2022-12-10T03:18:41;0.70;99.90
11894;DHT22;6006;49.696;8.662;2022-12-10T03:21:12;0.70;99.90
11894;DHT22;6006;49.696;8.662;2022-12-10T03:23:43;0.70;99.90
11894;DHT22;6006;49.696;8.662;2022-12-10T03:26:11;0.70;99.90
11894;DHT22;6006;49.696;8.662;2022-12-10T03:28:42;0.70;99.90
11894;DHT22;6006;49.696;8.662;2022-12-10T03:31:13;0.70;99.90
11894;DHT22;6006;49.696;8.662;2022-12-10T03:33:41;0.70;99.90
11894;DHT22;6006;49.696;8.662;2022-12-10T03:36:08;0.70;99.90
11894;DHT22;6006;49.696;8.662;2022-12-10T03:38:36;0.70;99.90
11894;DHT22;6006;49.696;8.662;2022-12-10T03:41:04;0.70;99.90
11894;DHT22;6006;49.696;8.662;2022-12-10T03:43:31;0.70;99.90
11894;DHT22;6006;49.696;8.662;2022-12-10T03:45:58;0.70;99.90
11894;DHT22;6006;49.696;8.662;2022-12-10T03:48:26;0.70;99.90
11894;DHT22;6006;49.696;8.662;2022-12-10T03:50:53;0.70;99.90
11894;DHT22;6006;49.696;8.662;2022-12-10T03:53:20;0.70;99.90
11894;DHT22;6006;49.696;8.662;2022-12-10T03:55:47;0.70;99.90
11894;DHT22;6006;49.696;8.662;2022-12-10T03:58:14;0.70;99.90
11894;DHT22;6006;49.696;8.662;2022-12-10T04:00:41;0.70;99.90
11894;DHT22;6006;49.696;8.662;2022-12-10T04:03:08;0.70;99.90
11894;DHT22;6006;49.696;8.662;2022-12-10T04:05:38;0.70;99.90
11894;DHT22;6006;49.696;8.662;2022-12-10T04:08:05;0.70;99.90
11894;DHT22;6006;49.696;8.662;2022-12-10T04:10:35;0.70;99.90
11894;DHT22;6006;49.696;8.662;2022-12-10T04:13:02;0.70;99.90
11894;DHT22;6006;49.696;8.662;2022-12-10T04:15:47;0.70;99.90
11894;DHT22;6006;49.696;8.662;2022-12-10T04:18:32;0.70;99.90
11894;DHT22;6006;49.696;8.662;2022-12-10T04:21:00;0.70;99.90
11894;DHT22;6006;49.696;8.662;2022-12-10T04:23:45;0.70;99.90
11894;DHT22;6006;49.696;8.662;2022-12-10T04:26:30;0.70;99.90
11894;DHT22;6006;49.696;8.662;2022-12-10T04:29:14;0.70;99.90
11894;DHT22;6006;49.696;8.662;2022-12-10T04:31:41;0.70;99.90
11894;DHT22;6006;49.696;8.662;2022-12-10T04:34:08;0.60;99.90
11894;DHT22;6006;49.696;8.662;2022-12-10T04:36:37;0.60;99.90
11894;DHT22;6006;49.696;8.662;2022-12-10T04:39:04;0.60;99.90
11894;DHT22;6006;49.696;8.662;2022-12-10T04:41:31;0.60;99.90
11894;DHT22;6006;49.696;8.662;2022-12-10T04:43:58;0.60;99.90
11894;DHT22;6006;49.696;8.662;2022-12-10T04:46:25;0.50;99.90
11894;DHT22;6006;49.696;8.662;2022-12-10T04:48:52;0.50;99.90
11894;DHT22;6006;49.696;8.662;2022-12-10T04:51:18;0.60;99.90
11894;DHT22;6006;49.696;8.662;2022-12-10T04:53:47;0.60;99.90
11894;DHT22;6006;49.696;8.662;2022-12-10T04:56:14;0.60;99.90
11894;DHT22;6006;49.696;8.662;2022-12-10T04:58:41;0.50;99.90
11894;DHT22;6006;49.696;8.662;2022-12-10T05:01:10;0.50;99.90
11894;DHT22;6006;49.696;8.662;2022-12-10T05:03:38;0.50;99.90
11894;DHT22;6006;49.696;8.662;2022-12-10T05:06:08;0.50;99.90
11894;DHT22;6006;49.696;8.662;2022-12-10T05:08:36;0.50;99.90
11894;DHT22;6006;49.696;8.662;2022-12-10T05:11:06;0.50;99.90
11894;DHT22;6006;49.696;8.662;2022-12-10T05:13:33;0.50;99.90
11894;DHT22;6006;49.696;8.662;2022-12-10T05:16:02;0.50;99.90
11894;DHT22;6006;49.696;8.662;2022-12-10T05:18:29;0.50;99.90
11894;DHT22;6006;49.696;8.662;2022-12-10T05:20:58;0.50;99.90
11894;DHT22;6006;49.696;8.662;2022-12-10T05:23:25;0.50;99.90
11894;DHT22;6006;49.696;8.662;2022-12-10T05:26:01;0.60;99.90
11894;DHT22;6006;49.696;8.662;2022-12-10T05:28:31;0.50;99.90
11894;DHT22;6006;49.696;8.662;2022-12-10T05:30:59;0.50;99.90
11894;DHT22;6006;49.696;8.662;2022-12-10T05:33:26;0.50;99.90
11894;DHT22;6006;49.696;8.662;2022-12-10T05:35:55;0.50;99.90
11894;DHT22;6006;49.696;8.662;2022-12-10T05:38:23;0.50;99.90
11894;DHT22;6006;49.696;8.662;2022-12-10T05:40:50;0.50;99.90
11894;DHT22;6006;49.696;8.662;2022-12-10T05:43:17;0.50;99.90
11894;DHT22;6006;49.696;8.662;2022-12-10T05:45:46;0.50;99.90
11894;DHT22;6006;49.696;8.662;2022-12-10T05:48:15;0.60;99.90
11894;DHT22;6006;49.696;8.662;2022-12-10T05:50:43;0.50;99.90
11894;DHT22;6006;49.696;8.662;2022-12-10T05:53:10;0.50;99.90
11894;DHT22;6006;49.696;8.662;2022-12-10T05:55:39;0.50;99.90
11894;DHT22;6006;49.696;8.662;2022-12-10T05:58:07;0.50;99.90
11894;DHT22;6006;49.696;8.662;2022-12-10T06:00:38;0.50;99.90
11894;DHT22;6006;49.696;8.662;2022-12-10T06:03:07;0.50;99.90
11894;DHT22;6006;49.696;8.662;2022-12-10T06:05:36;0.50;99.90
11894;DHT22;6006;49.696;8.662;2022-12-10T06:08:04;0.50;99.90
11894;DHT22;6006;49.696;8.662;2022-12-10T06:10:31;0.50;99.90
11894;DHT22;6006;49.696;8.662;2022-12-10T06:12:58;0.50;99.90
11894;DHT22;6006;49.696;8.662;2022-12-10T06:15:25;0.50;99.90
11894;DHT22;6006;49.696;8.662;2022-12-10T06:17:52;0.50;99.90
11894;DHT22;6006;49.696;8.662;2022-12-10T06:20:22;0.60;99.90
11894;DHT22;6006;49.696;8.662;2022-12-10T06:22:49;0.60;99.90
11894;DHT22;6006;49.696;8.662;2022-12-10T06:25:16;0.60;99.90
11894;DHT22;6006;49.696;8.662;2022-12-10T06:27:43;0.60;99.90
11894;DHT22;6006;49.696;8.662;2022-12-10T06:30:10;0.60;99.90
11894;DHT22;6006;49.696;8.662;2022-12-10T06:32:37;0.60;99.90
11894;DHT22;6006;49.696;8.662;2022-12-10T06:35:05;0.60;99.90
11894;DHT22;6006;49.696;8.662;2022-12-10T06:37:34;0.60;99.90
11894;DHT22;6006;49.696;8.662;2022-12-10T06:40:01;0.60;99.90
11894;DHT22;6006;49.696;8.662;2022-12-10T06:42:28;0.60;99.90
11894;DHT22;6006;49.696;8.662;2022-12-10T06:44:55;0.60;99.90
11894;DHT22;6006;49.696;8.662;2022-12-10T06:47:22;0.60;99.90
11894;DHT22;6006;49.696;8.662;2022-12-10T06:49:49;0.60;99.90
11894;DHT22;6006;49.696;8.662;2022-12-10T06:52:16;0.60;99.90
11894;DHT22;6006;49.696;8.662;2022-12-10T06:54:44;0.60;99.90
11894;DHT22;6006;49.696;8.662;2022-12-10T06:57:11;0.60;99.90
11894;DHT22;6006;49.696;8.662;2022-12-10T06:59:38;0.60;99.90
11894;DHT22;6006;49.696;8.662;2022-12-10T07:02:05;0.60;99.90
11894;DHT22;6006;49.696;8.662;2022-12-10T07:04:32;0.70;99.90
11894;DHT22;6006;49.696;8.662;2022-12-10T07:06:59;0.70;99.90
11894;DHT22;6006;49.696;8.662;2022-12-10T07:09:26;0.60;99.90
11894;DHT22;6006;49.696;8.662;2022-12-10T07:11:56;0.60;99.90
11894;DHT22;6006;49.696;8.662;2022-12-10T07:14:23;0.60;99.90
11894;DHT22;6006;49.696;8.662;2022-12-10T07:16:50;0.70;99.90
11894;DHT22;6006;49.696;8.662;2022-12-10T07:19:17;0.60;99.90
11894;DHT22;6006;49.696;8.662;2022-12-10T07:21:44;0.60;99.90
11894;DHT22;6006;49.696;8.662;2022-12-10T07:24:15;0.70;99.90
11894;DHT22;6006;49.696;8.662;2022-12-10T07:26:44;0.70;99.90
11894;DHT22;6006;49.696;8.662;2022-12-10T07:29:15;0.70;99.90
11894;DHT22;6006;49.696;8.662;2022-12-10T07:31:42;0.70;99.90
11894;DHT22;6006;49.696;8.662;2022-12-10T07:34:10;0.70;99.90
11894;DHT22;6006;49.696;8.662;2022-12-10T07:36:37;1.00;99.90
11894;DHT22;6006;49.696;8.662;2022-12-10T07:39:05;1.00;99.90
11894;DHT22;6006;49.696;8.662;2022-12-10T07:41:33;0.90;99.90
11894;DHT22;6006;49.696;8.662;2022-12-10T07:44:02;0.90;99.90
11894;DHT22;6006;49.696;8.662;2022-12-10T07:46:33;0.90;99.90
11894;DHT22;6006;49.696;8.662;2022-12-10T07:49:01;0.80;99.90
11894;DHT22;6006;49.696;8.662;2022-12-10T07:51:28;0.80;99.90
11894;DHT22;6006;49.696;8.662;2022-12-10T07:53:56;0.90;99.90
11894;DHT22;6006;49.696;8.662;2022-12-10T07:56:24;0.90;99.90
11894;DHT22;6006;49.696;8.662;2022-12-10T07:58:52;0.90;99.90
11894;DHT22;6006;49.696;8.662;2022-12-10T08:01:21;0.90;99.90
11894;DHT22;6006;49.696;8.662;2022-12-10T08:03:51;0.90;99.90
11894;DHT22;6006;49.696;8.662;2022-12-10T08:06:20;0.90;99.90
11894;DHT22;6006;49.696;8.662;2022-12-10T08:08:48;0.80;99.90
11894;DHT22;6006;49.696;8.662;2022-12-10T08:11:16;0.90;99.90
11894;DHT22;6006;49.696;8.662;2022-12-10T08:13:44;0.90;99.90
11894;DHT22;6006;49.696;8.662;2022-12-10T08:16:13;0.90;99.90
11894;DHT22;6006;49.696;8.662;2022-12-10T08:18:41;0.90;99.90
11894;DHT22;6006;49.696;8.662;2022-12-10T08:21:11;0.90;99.90
11894;DHT22;6006;49.696;8.662;2022-12-10T08:23:40;0.90;99.90
11894;DHT22;6006;49.696;8.662;2022-12-10T08:26:09;0.90;99.90
11894;DHT22;6006;49.696;8.662;2022-12-10T08:28:37;0.90;99.90
11894;DHT22;6006;49.696;8.662;2022-12-10T08:31:04;1.00;99.90
11894;DHT22;6006;49.696;8.662;2022-12-10T08:33:33;1.00;99.90
11894;DHT22;6006;49.696;8.662;2022-12-10T08:36:02;1.00;99.90
11894;DHT22;6006;49.696;8.662;2022-12-10T08:38:30;1.00;99.90
11894;DHT22;6006;49.696;8.662;2022-12-10T08:40:57;1.10;99.90
11894;DHT22;6006;49.696;8.662;2022-12-10T08:43:25;1.10;99.90
11894;DHT22;6006;49.696;8.662;2022-12-10T08:45:52;1.10;99.90
11894;DHT22;6006;49.696;8.662;2022-12-10T08:48:19;1.10;99.90
11894;DHT22;6006;49.696;8.662;2022-12-10T08:50:46;1.10;99.90
11894;DHT22;6006;49.696;8.662;2022-12-10T08:53:13;1.10;99.90
11894;DHT22;6006;49.696;8.662;2022-12-10T08:55:42;1.20;99.90
11894;DHT22;6006;49.696;8.662;2022-12-10T08:58:09;1.20;99.90
11894;DHT22;6006;49.696;8.662;2022-12-10T09:00:36;1.30;99.90
11894;DHT22;6006;49.696;8.662;2022-12-10T09:03:03;1.30;99.90
11894;DHT22;6006;49.696;8.662;2022-12-10T09:05:30;1.40;99.90
11894;DHT22;6006;49.696;8.662;2022-12-10T09:07:57;1.50;99.90
11894;DHT22;6006;49.696;8.662;2022-12-10T09:10:24;1.40;99.90
11894;DHT22;6006;49.696;8.662;2022-12-10T09:12:53;1.50;99.90
11894;DHT22;6006;49.696;8.662;2022-12-10T09:15:20;1.50;99.90
11894;DHT22;6006;49.696;8.662;2022-12-10T09:17:46;1.50;99.90
11894;DHT22;6006;49.696;8.662;2022-12-10T09:20:14;1.50;99.90
11894;DHT22;6006;49.696;8.662;2022-12-10T09:22:40;1.70;99.90
11894;DHT22;6006;49.696;8.662;2022-12-10T09:25:08;1.70;99.90
11894;DHT22;6006;49.696;8.662;2022-12-10T09:27:36;1.80;92.10
11894;DHT22;6006;49.696;8.662;2022-12-10T09:30:06;1.90;46.00
11894;DHT22;6006;49.696;8.662;2022-12-10T09:32:33;1.90;1.00
11894;DHT22;6006;49.696;8.662;2022-12-10T09:35:00;1.90;1.00
11894;DHT22;6006;49.696;8.662;2022-12-10T09:37:27;2.00;1.00
11894;DHT22;6006;49.696;8.662;2022-12-10T09:39:54;2.10;12.60
11894;DHT22;6006;49.696;8.662;2022-12-10T09:42:34;2.10;1.00
11894;DHT22;6006;49.696;8.662;2022-12-10T09:45:14;2.20;1.00
11894;DHT22;6006;49.696;8.662;2022-12-10T09:47:52;2.20;1.00
11894;DHT22;6006;49.696;8.662;2022-12-10T09:50:26;2.30;1.00
11894;DHT22;6006;49.696;8.662;2022-12-10T09:52:55;2.40;1.00
11894;DHT22;6006;49.696;8.662;2022-12-10T09:55:31;2.40;1.00
11894;DHT22;6006;49.696;8.662;2022-12-10T09:57:59;2.50;1.00
11894;DHT22;6006;49.696;8.662;2022-12-10T10:00:34;2.50;1.00
11894;DHT22;6006;49.696;8.662;2022-12-10T10:03:02;2.40;1.00
11894;DHT22;6006;49.696;8.662;2022-12-10T10:05:31;2.40;1.00
11894;DHT22;6006;49.696;8.662;2022-12-10T10:08:01;2.40;1.00
11894;DHT22;6006;49.696;8.662;2022-12-10T10:10:30;2.40;1.00
11894;DHT22;6006;49.696;8.662;2022-12-10T10:13:09;2.30;1.00
11894;DHT22;6006;49.696;8.662;2022-12-10T10:15:41;2.40;1.00
11894;DHT22;6006;49.696;8.662;2022-12-10T10:18:14;3.00;1.00
11894;DHT22;6006;49.696;8.662;2022-12-10T10:20:44;2.60;1.00
11894;DHT22;6006;49.696;8.662;2022-12-10T10:23:14;2.60;1.00
11894;DHT22;6006;49.696;8.662;2022-12-10T10:25:42;2.60;1.00
11894;DHT22;6006;49.696;8.662;2022-12-10T10:28:11;2.60;1.00
11894;DHT22;6006;49.696;8.662;2022-12-10T10:30:42;2.40;1.00
11894;DHT22;6006;49.696;8.662;2022-12-10T10:33:12;2.20;1.00
11894;DHT22;6006;49.696;8.662;2022-12-10T10:35:44;2.30;1.00
11894;DHT22;6006;49.696;8.662;2022-12-10T10:38:18;2.20;1.00
11894;DHT22;6006;49.696;8.662;2022-12-10T10:40:50;2.20;1.00
11894;DHT22;6006;49.696;8.662;2022-12-10T10:43:21;2.30;1.00
11894;DHT22;6006;49.696;8.662;2022-12-10T10:45:54;2.40;1.00
11894;DHT22;6006;49.696;8.662;2022-12-10T10:48:23;2.30;1.00
11894;DHT22;6006;49.696;8.662;2022-12-10T10:50:52;2.30;1.00
11894;DHT22;6006;49.696;8.662;2022-12-10T10:53:30;2.40;1.00
11894;DHT22;6006;49.696;8.662;2022-12-10T10:56:05;2.10;1.00
11894;DHT22;6006;49.696;8.662;2022-12-10T10:58:34;2.20;1.00
11894;DHT22;6006;49.696;8.662;2022-12-10T11:01:05;2.20;1.00
11894;DHT22;6006;49.696;8.662;2022-12-10T11:03:34;2.20;1.00
11894;DHT22;6006;49.696;8.662;2022-12-10T11:06:05;2.10;1.00
11894;DHT22;6006;49.696;8.662;2022-12-10T11:08:35;2.10;1.00
11894;DHT22;6006;49.696;8.662;2022-12-10T11:11:05;2.30;1.00
11894;DHT22;6006;49.696;8.662;2022-12-10T11:13:38;2.20;1.00
11894;DHT22;6006;49.696;8.662;2022-12-10T11:16:15;2.20;1.00
11894;DHT22;6006;49.696;8.662;2022-12-10T11:18:52;2.30;1.00
11894;DHT22;6006;49.696;8.662;2022-12-10T11:21:21;2.30;1.00
11894;DHT22;6006;49.696;8.662;2022-12-10T11:23:51;2.30;1.00
11894;DHT22;6006;49.696;8.662;2022-12-10T11:26:35;2.30;1.00
11894;DHT22;6006;49.696;8.662;2022-12-10T11:29:22;2.40;1.00
11894;DHT22;6006;49.696;8.662;2022-12-10T11:32:05;2.40;1.00
11894;DHT22;6006;49.696;8.662;2022-12-10T11:34:41;2.40;1.00
11894;DHT22;6006;49.696;8.662;2022-12-10T11:37:21;2.20;1.00
11894;DHT22;6006;49.696;8.662;2022-12-10T11:40:02;2.20;1.00
11894;DHT22;6006;49.696;8.662;2022-12-10T11:42:38;2.10;1.00
11894;DHT22;6006;49.696;8.662;2022-12-10T11:45:17;2.20;1.00
11894;DHT22;6006;49.696;8.662;2022-12-10T11:48:00;2.40;1.00
11894;DHT22;6006;49.696;8.662;2022-12-10T11:50:36;2.60;1.00
11894;DHT22;6006;49.696;8.662;2022-12-10T11:56:07;2.70;99.90
11894;DHT22;6006;49.696;8.662;2022-12-10T11:58:48;2.60;99.90
11894;DHT22;6006;49.696;8.662;2022-12-10T12:01:26;2.60;99.90
11894;DHT22;6006;49.696;8.662;2022-12-10T12:04:32;2.70;99.90
11894;DHT22;6006;49.696;8.662;2022-12-10T12:07:20;2.60;99.90
11894;DHT22;6006;49.696;8.662;2022-12-10T12:10:03;2.60;99.90
11894;DHT22;6006;49.696;8.662;2022-12-10T12:12:37;2.60;99.90
11894;DHT22;6006;49.696;8.662;2022-12-10T12:15:14;2.50;99.90
11894;DHT22;6006;49.696;8.662;2022-12-10T12:17:47;2.50;99.90
11894;DHT22;6006;49.696;8.662;2022-12-10T12:20:20;2.30;99.90
11894;DHT22;6006;49.696;8.662;2022-12-10T12:22:52;2.20;1.00
11894;DHT22;6006;49.696;8.662;2022-12-10T12:25:24;2.30;1.00
11894;DHT22;6006;49.696;8.662;2022-12-10T12:27:57;2.40;1.00
11894;DHT22;6006;49.696;8.662;2022-12-10T12:30:26;2.40;99.90
11894;DHT22;6006;49.696;8.662;2022-12-10T12:32:57;2.30;1.00
11894;DHT22;6006;49.696;8.662;2022-12-10T12:35:35;2.50;1.00
11894;DHT22;6006;49.696;8.662;2022-12-10T12:38:25;2.60;1.00
11894;DHT22;6006;49.696;8.662;2022-12-10T12:40:57;2.60;99.90
11894;DHT22;6006;49.696;8.662;2022-12-10T12:43:43;2.70;99.90
11894;DHT22;6006;49.696;8.662;2022-12-10T12:46:15;2.70;99.90
11894;DHT22;6006;49.696;8.662;2022-12-10T12:48:51;2.60;1.00
11894;DHT22;6006;49.696;8.662;2022-12-10T12:51:26;2.50;1.00
11894;DHT22;6006;49.696;8.662;2022-12-10T12:53:54;2.40;99.90
11894;DHT22;6006;49.696;8.662;2022-12-10T12:56:30;2.40;1.00
11894;DHT22;6006;49.696;8.662;2022-12-10T12:59:10;2.30;1.00
11894;DHT22;6006;49.696;8.662;2022-12-10T13:01:41;2.40;1.00
11894;DHT22;6006;49.696;8.662;2022-12-10T13:04:11;1.80;1.00
11894;DHT22;6006;49.696;8.662;2022-12-10T13:06:40;2.30;1.00
11894;DHT22;6006;49.696;8.662;2022-12-10T13:09:23;2.20;1.00
11894;DHT22;6006;49.696;8.662;2022-12-10T13:12:26;2.20;1.00
11894;DHT22;6006;49.696;8.662;2022-12-10T13:15:02;2.10;1.00
11894;DHT22;6006;49.696;8.662;2022-12-10T13:17:32;2.10;1.00
11894;DHT22;6006;49.696;8.662;2022-12-10T13:20:31;2.00;1.00
11894;DHT22;6006;49.696;8.662;2022-12-10T13:23:00;2.00;1.00
11894;DHT22;6006;49.696;8.662;2022-12-10T13:25:56;1.90;1.00
11894;DHT22;6006;49.696;8.662;2022-12-10T13:28:31;2.00;1.00
11894;DHT22;6006;49.696;8.662;2022-12-10T13:31:22;2.00;1.00
11894;DHT22;6006;49.696;8.662;2022-12-10T13:34:14;1.90;1.00
11894;DHT22;6006;49.696;8.662;2022-12-10T13:37:04;1.90;1.00
11894;DHT22;6006;49.696;8.662;2022-12-10T13:39:36;1.90;1.00
11894;DHT22;6006;49.696;8.662;2022-12-10T13:42:36;2.00;1.00
11894;DHT22;6006;49.696;8.662;2022-12-10T13:45:32;1.90;1.00
11894;DHT22;6006;49.696;8.662;2022-12-10T13:48:25;1.90;1.00
11894;DHT22;6006;49.696;8.662;2022-12-10T13:51:04;2.00;1.00
11894;DHT22;6006;49.696;8.662;2022-12-10T13:53:42;2.00;1.00
11894;DHT22;6006;49.696;8.662;2022-12-10T13:56:20;2.00;1.00
11894;DHT22;6006;49.696;8.662;2022-12-10T13:59:02;2.00;1.00
11894;DHT22;6006;49.696;8.662;2022-12-10T14:01:39;1.90;1.00
11894;DHT22;6006;49.696;8.662;2022-12-10T14:04:36;2.00;1.00
11894;DHT22;6006;49.696;8.662;2022-12-10T14:07:07;2.00;1.00
11894;DHT22;6006;49.696;8.662;2022-12-10T14:09:42;2.10;1.00
11894;DHT22;6006;49.696;8.662;2022-12-10T14:12:15;2.20;1.00
11894;DHT22;6006;49.696;8.662;2022-12-10T14:14:46;2.20;1.00
11894;DHT22;6006;49.696;8.662;2022-12-10T14:17:16;2.20;1.00
11894;DHT22;6006;49.696;8.662;2022-12-10T14:19:46;2.10;1.00
11894;DHT22;6006;49.696;8.662;2022-12-10T14:22:18;2.10;1.00
11894;DHT22;6006;49.696;8.662;2022-12-10T14:24:48;2.00;1.00
11894;DHT22;6006;49.696;8.662;2022-12-10T14:27:19;2.00;1.00
11894;DHT22;6006;49.696;8.662;2022-12-10T14:29:48;2.00;1.00
11894;DHT22;6006;49.696;8.662;2022-12-10T14:32:19;2.10;1.00
11894;DHT22;6006;49.696;8.662;2022-12-10T14:34:51;2.10;1.00
11894;DHT22;6006;49.696;8.662;2022-12-10T14:37:20;2.10;1.00
11894;DHT22;6006;49.696;8.662;2022-12-10T14:39:49;2.10;1.00
11894;DHT22;6006;49.696;8.662;2022-12-10T14:42:18;2.00;1.00
11894;DHT22;6006;49.696;8.662;2022-12-10T14:44:46;2.10;1.00
11894;DHT22;6006;49.696;8.662;2022-12-10T14:47:19;2.00;1.00
11894;DHT22;6006;49.696;8.662;2022-12-10T14:49:47;1.90;1.00
11894;DHT22;6006;49.696;8.662;2022-12-10T14:52:16;1.90;1.00
11894;DHT22;6006;49.696;8.662;2022-12-10T14:54:44;1.80;1.00
11894;DHT22;6006;49.696;8.662;2022-12-10T14:57:16;1.80;1.00
11894;DHT22;6006;49.696;8.662;2022-12-10T14:59:48;1.80;1.00
11894;DHT22;6006;49.696;8.662;2022-12-10T15:02:21;1.80;1.00
11894;DHT22;6006;49.696;8.662;2022-12-10T15:04:51;1.80;1.00
11894;DHT22;6006;49.696;8.662;2022-12-10T15:07:21;1.80;1.00
11894;DHT22;6006;49.696;8.662;2022-12-10T15:09:50;1.70;1.00
11894;DHT22;6006;49.696;8.662;2022-12-10T15:12:31;1.70;1.00
11894;DHT22;6006;49.696;8.662;2022-12-10T15:15:05;1.60;1.00
11894;DHT22;6006;49.696;8.662;2022-12-10T15:17:37;1.50;1.00
11894;DHT22;6006;49.696;8.662;2022-12-10T15:20:17;1.40;1.00
11894;DHT22;6006;49.696;8.662;2022-12-10T15:22:45;1.40;1.00
11894;DHT22;6006;49.696;8.662;2022-12-10T15:25:23;1.40;1.00
11894;DHT22;6006;49.696;8.662;2022-12-10T15:27:58;1.50;1.00
11894;DHT22;6006;49.696;8.662;2022-12-10T15:30:36;1.40;1.00
11894;DHT22;6006;49.696;8.662;2022-12-10T15:33:24;1.20;30.60
11894;DHT22;6006;49.696;8.662;2022-12-10T15:35:57;1.10;99.90
11894;DHT22;6006;49.696;8.662;2022-12-10T15:38:25;1.00;99.90
11894;DHT22;6006;49.696;8.662;2022-12-10T15:40:57;1.00;99.90
11894;DHT22;6006;49.696;8.662;2022-12-10T15:43:27;0.80;99.90
11894;DHT22;6006;49.696;8.662;2022-12-10T15:45:57;0.70;99.90
11894;DHT22;6006;49.696;8.662;2022-12-10T15:48:27;0.60;99.90
11894;DHT22;6006;49.696;8.662;2022-12-10T15:50:54;0.50;99.90
11894;DHT22;6006;49.696;8.662;2022-12-10T15:53:34;0.50;99.90
11894;DHT22;6006;49.696;8.662;2022-12-10T15:56:03;0.50;99.90
11894;DHT22;6006;49.696;8.662;2022-12-10T15:58:30;0.60;99.90
11894;DHT22;6006;49.696;8.662;2022-12-10T16:00:59;0.60;99.90
11894;DHT22;6006;49.696;8.662;2022-12-10T16:03:28;0.50;99.90
11894;DHT22;6006;49.696;8.662;2022-12-10T16:05:55;0.60;99.90
11894;DHT22;6006;49.696;8.662;2022-12-10T16:08:24;0.60;99.90
11894;DHT22;6006;49.696;8.662;2022-12-10T16:10:54;0.60;99.90
11894;DHT22;6006;49.696;8.662;2022-12-10T16:13:24;0.70;99.90
11894;DHT22;6006;49.696;8.662;2022-12-10T16:15:54;0.70;99.90
11894;DHT22;6006;49.696;8.662;2022-12-10T16:18:24;0.70;99.90
11894;DHT22;6006;49.696;8.662;2022-12-10T16:20:51;0.70;99.90
11894;DHT22;6006;49.696;8.662;2022-12-10T16:23:18;0.70;99.90
11894;DHT22;6006;49.696;8.662;2022-12-10T16:25:45;0.70;99.90
11894;DHT22;6006;49.696;8.662;2022-12-10T16:28:14;0.70;99.90
11894;DHT22;6006;49.696;8.662;2022-12-10T16:30:44;0.80;99.90
11894;DHT22;6006;49.696;8.662;2022-12-10T16:33:14;0.70;99.90
11894;DHT22;6006;49.696;8.662;2022-12-10T16:35:42;0.80;99.90